Terminal Aerodrome Forecast
Issued by NWS

Home | Current Version | Previous Version | Text Only | Print | Product List | Glossary On
Versions: 1 2 3 4 5 6 7 8 9 10 11 12 13 14 15 16 17 18 19
000
FTUS44 KMAF 021123
TAFCNM
TAF
KCNM 021123Z 0212/0312 17011KT P6SM SCT090 SCT150
      TEMPO 0221/0301 VRB15G30KT 5SM TSRA BKN060CB=

USA.gov is the U.S. government's official web portal to all federal, state and local government web resources and services.